Time;durP1;ratioP1;P1;durP2;ratioP2;P2;SDS_P1;SDS_P2;PMS_P1;PMS_P2;Temp;Humidity;BMP_temperature;BMP_pressure;BME280_temperature;BME280_humidity;BME280_pressure;Samples;Min_cycle;Max_cycle;Signal;HPM_P1;HPM_P2
2024/03/12 00:00:15;;;;;;;;;;;;;;;8.15;100.00;95603.89;111591;1249;22528;-89
2024/03/12 00:03:01;;;;;;;;;;;;;;;8.14;100.00;95603.41;111508;1249;22512;-88
2024/03/12 00:05:28;;;;;;;;;;;;;;;8.12;100.00;95600.86;111630;1249;23120;-89
2024/03/12 00:07:54;;;;;;;;;;;;;;;8.09;100.00;95602.55;111634;1249;22512;-88
2024/03/12 00:10:19;;;;;;;;;;;;;;;8.09;100.00;95601.98;111635;1249;23579;-85
2024/03/12 00:12:52;;;;;;;;;;;;;;;8.07;100.00;95603.02;111639;1249;23686;-85
2024/03/12 00:15:19;;;;;;;;;;;;;;;8.06;100.00;95596.31;111411;1249;22497;-85
2024/03/12 00:17:45;;;;;;;;;;;;;;;8.04;100.00;95595.30;112849;1249;22331;-86
2024/03/12 00:20:17;;;;;;;;;;;;;;;8.03;100.00;95590.95;112842;1249;22977;-86
2024/03/12 00:22:45;;;;;;;;;;;;;;;8.02;100.00;95589.00;111714;1249;23339;-86
2024/03/12 00:25:13;;;;;;;;;;;;;;;8.02;100.00;95588.08;111627;1249;22432;-89
2024/03/12 00:27:40;;;;;;;;;;;;;;;8.02;100.00;95582.83;112987;1239;22355;-89
2024/03/12 00:30:09;;;;;;;;;;;;;;;8.01;100.00;95580.31;112988;1249;22355;-89
2024/03/12 00:32:36;;;;;;;;;;;;;;;7.99;100.00;95581.13;111636;1249;22504;-89
2024/03/12 00:35:03;;;;;;;;;;;;;;;7.98;100.00;95581.59;111681;1248;22508;-89
2024/03/12 00:37:29;;;;;;;;;;;;;;;7.94;100.00;95582.34;111685;1249;22953;-89
2024/03/12 00:39:55;;;;;;;;;;;;;;;7.88;100.00;95584.88;111704;1249;25198;-88
2024/03/12 00:42:22;;;;;;;;;;;;;;;7.86;100.00;95580.84;111451;1249;22477;-89
2024/03/12 00:44:48;;;;;;;;;;;;;;;7.84;100.00;95578.64;111701;1246;22513;-89
2024/03/12 00:47:14;;;;;;;;;;;;;;;7.83;100.00;95580.23;111600;1248;25259;-89
2024/03/12 00:49:40;;;;;;;;;;;;;;;7.79;100.00;95578.22;111481;1249;22949;-89
2024/03/12 00:52:06;;;;;;;;;;;;;;;7.79;100.00;95573.59;111600;1249;22504;-89
2024/03/12 00:54:36;;;;;;;;;;;;;;;7.78;100.00;95576.81;111695;1249;24193;-89
2024/03/12 00:57:02;;;;;;;;;;;;;;;7.77;100.00;95574.92;111620;1248;22484;-88
2024/03/12 00:59:29;;;;;;;;;;;;;;;7.75;100.00;95576.38;111617;1249;25263;-89
2024/03/12 01:01:55;;;;;;;;;;;;;;;7.72;100.00;95574.85;112855;1249;22364;-90
2024/03/12 01:04:21;;;;;;;;;;;;;;;7.71;100.00;95576.32;112950;1247;22928;-89
2024/03/12 01:06:49;;;;;;;;;;;;;;;7.71;100.00;95575.88;113037;1248;22403;-89
2024/03/12 01:09:17;;;;;;;;;;;;;;;7.68;100.00;95571.55;112396;1249;23145;-89
2024/03/12 01:11:43;;;;;;;;;;;;;;;7.67;100.00;95580.65;111611;1249;22519;-87
2024/03/12 01:14:09;;;;;;;;;;;;;;;7.69;100.00;95576.48;111629;1248;22518;-89
2024/03/12 01:16:35;;;;;;;;;;;;;;;7.66;100.00;95578.89;111605;1249;22716;-88
2024/03/12 01:19:01;;;;;;;;;;;;;;;7.65;100.00;95572.76;111565;1249;22539;-89
2024/03/12 01:21:27;;;;;;;;;;;;;;;7.65;100.00;95574.51;111596;1249;22590;-89
2024/03/12 01:23:54;;;;;;;;;;;;;;;7.65;100.00;95569.98;111497;1249;22500;-88
2024/03/12 01:26:20;;;;;;;;;;;;;;;7.66;100.00;95572.52;111566;1249;22495;-89
2024/03/12 01:28:46;;;;;;;;;;;;;;;7.65;100.00;95573.08;111527;1249;22479;-85
2024/03/12 01:31:11;;;;;;;;;;;;;;;7.67;100.00;95567.65;111578;1249;22524;-85
2024/03/12 01:33:39;;;;;;;;;;;;;;;7.69;100.00;95568.90;111707;1249;25218;-85
2024/03/12 01:36:05;;;;;;;;;;;;;;;7.67;100.00;95564.07;111647;1249;22529;-85
2024/03/12 01:38:34;;;;;;;;;;;;;;;7.66;100.00;95560.23;111694;1249;22434;-85
2024/03/12 01:41:01;;;;;;;;;;;;;;;7.65;100.00;95559.50;111661;1249;24173;-85
2024/03/12 01:43:28;;;;;;;;;;;;;;;7.64;100.00;95560.08;111651;1249;24189;-85
2024/03/12 01:45:53;;;;;;;;;;;;;;;7.63;100.00;95557.28;111645;1249;25359;-85
2024/03/12 01:48:22;;;;;;;;;;;;;;;7.63;100.00;95556.48;111660;1249;23831;-85
2024/03/12 01:50:48;;;;;;;;;;;;;;;7.61;100.00;95557.93;111563;1249;22499;-85
2024/03/12 01:53:14;;;;;;;;;;;;;;;7.59;100.00;95559.19;111418;1249;24066;-85
2024/03/12 01:55:43;;;;;;;;;;;;;;;7.58;100.00;95562.92;111551;1249;22582;-85
2024/03/12 01:58:08;;;;;;;;;;;;;;;7.58;100.00;95558.31;111545;1249;23765;-85
2024/03/12 02:00:34;;;;;;;;;;;;;;;7.58;100.00;95554.98;111440;1249;22553;-85
2024/03/12 02:03:00;;;;;;;;;;;;;;;7.57;100.00;95562.04;111549;1249;24122;-85
2024/03/12 02:05:26;;;;;;;;;;;;;;;7.57;100.00;95558.94;111514;1249;22530;-85
2024/03/12 02:07:53;;;;;;;;;;;;;;;7.53;100.00;95558.55;111640;1249;23725;-85
2024/03/12 02:10:19;;;;;;;;;;;;;;;7.51;100.00;95559.09;111664;1249;22471;-85
2024/03/12 02:12:47;;;;;;;;;;;;;;;7.50;100.00;95560.27;111540;1249;22471;-85
2024/03/12 02:15:14;;;;;;;;;;;;;;;7.50;100.00;95560.59;111539;1249;22514;-85
2024/03/12 02:17:40;;;;;;;;;;;;;;;7.44;100.00;95560.90;111673;1246;22861;-85
2024/03/12 02:20:09;;;;;;;;;;;;;;;7.40;100.00;95557.64;111712;1249;22421;-85
2024/03/12 02:22:35;;;;;;;;;;;;;;;7.38;100.00;95560.02;111544;1248;22491;-86
2024/03/12 02:25:03;;;;;;;;;;;;;;;7.36;100.00;95559.63;111686;1249;22501;-85
2024/03/12 02:27:29;;;;;;;;;;;;;;;7.37;100.00;95560.05;111513;1248;22488;-85
2024/03/12 02:29:55;;;;;;;;;;;;;;;7.36;100.00;95556.54;111540;1249;22673;-85
2024/03/12 02:32:22;;;;;;;;;;;;;;;7.35;100.00;95554.57;111411;1249;23351;-86
2024/03/12 02:34:49;;;;;;;;;;;;;;;7.35;100.00;95556.96;111460;1249;22582;-85
2024/03/12 02:37:15;;;;;;;;;;;;;;;7.33;100.00;95555.10;111682;1249;22546;-85
2024/03/12 02:39:40;;;;;;;;;;;;;;;7.31;100.00;95555.84;111458;1247;23254;-85
2024/03/12 02:42:08;;;;;;;;;;;;;;;7.29;100.00;95555.03;111449;1249;25465;-85
2024/03/12 02:44:37;;;;;;;;;;;;;;;7.24;100.00;95552.16;111428;1249;25909;-86
2024/03/12 02:47:03;;;;;;;;;;;;;;;7.25;100.00;95557.19;111441;1249;22522;-85
2024/03/12 02:49:29;;;;;;;;;;;;;;;7.25;100.00;95558.21;111435;1249;25211;-85
2024/03/12 02:51:55;;;;;;;;;;;;;;;7.22;100.00;95556.33;111446;1249;23157;-85
2024/03/12 02:54:20;;;;;;;;;;;;;;;7.19;100.00;95555.66;111528;1249;25368;-85
2024/03/12 02:56:47;;;;;;;;;;;;;;;7.18;100.00;95557.63;111486;1249;22525;-85
2024/03/12 02:59:13;;;;;;;;;;;;;;;7.18;100.00;95559.06;111424;1247;22438;-85
2024/03/12 03:01:39;;;;;;;;;;;;;;;7.18;100.00;95560.06;111432;1249;24015;-85
2024/03/12 03:04:05;;;;;;;;;;;;;;;7.19;100.00;95560.98;111558;1249;22716;-85
2024/03/12 03:06:31;;;;;;;;;;;;;;;7.18;100.00;95563.72;111524;1249;22569;-85
2024/03/12 03:08:58;;;;;;;;;;;;;;;7.17;100.00;95563.42;111448;1249;22486;-85
2024/03/12 03:11:24;;;;;;;;;;;;;;;7.18;100.00;95568.52;111468;1249;22552;-85
2024/03/12 03:13:50;;;;;;;;;;;;;;;7.19;100.00;95565.59;111533;1247;22997;-85
2024/03/12 03:16:17;;;;;;;;;;;;;;;7.19;100.00;95570.21;111528;1249;22519;-88
2024/03/12 03:18:43;;;;;;;;;;;;;;;7.20;100.00;95574.40;111578;1249;22511;-88
2024/03/12 03:21:09;;;;;;;;;;;;;;;7.20;100.00;95575.83;111530;1249;22489;-88
2024/03/12 03:23:39;;;;;;;;;;;;;;;7.18;100.00;95577.47;111560;1249;22554;-88
2024/03/12 03:26:05;;;;;;;;;;;;;;;7.18;100.00;95575.95;111555;1249;22598;-87
2024/03/12 03:28:31;;;;;;;;;;;;;;;7.20;100.00;95577.77;111739;1249;22523;-88
2024/03/12 03:30:59;;;;;;;;;;;;;;;7.20;100.00;95578.25;111679;1249;22551;-88
2024/03/12 03:33:25;;;;;;;;;;;;;;;7.20;100.00;95581.48;111702;1249;22492;-86
2024/03/12 03:35:51;;;;;;;;;;;;;;;7.20;100.00;95582.73;111668;1249;22484;-86
2024/03/12 03:38:19;;;;;;;;;;;;;;;7.21;100.00;95581.16;111680;1249;22480;-85
2024/03/12 03:40:45;;;;;;;;;;;;;;;7.18;100.00;95579.66;111505;1249;22612;-86
2024/03/12 03:43:11;;;;;;;;;;;;;;;7.13;100.00;95582.83;111643;1249;22541;-86
2024/03/12 03:45:37;;;;;;;;;;;;;;;7.12;100.00;95582.70;111727;1249;24396;-86
2024/03/12 03:48:04;;;;;;;;;;;;;;;7.09;100.00;95584.05;111676;1249;23892;-85
2024/03/12 03:50:29;;;;;;;;;;;;;;;7.11;100.00;95586.73;111686;1249;22994;-86
2024/03/12 03:52:55;;;;;;;;;;;;;;;7.11;100.00;95587.73;111690;1247;24313;-86
2024/03/12 03:55:24;;;;;;;;;;;;;;;7.12;100.00;95581.82;111533;1249;22516;-86
2024/03/12 03:57:50;;;;;;;;;;;;;;;7.11;100.00;95579.86;111480;1249;22512;-87
2024/03/12 04:00:16;;;;;;;;;;;;;;;7.11;100.00;95577.41;111448;1249;22478;-85
2024/03/12 04:02:44;;;;;;;;;;;;;;;7.13;100.00;95574.48;112926;1244;22365;-87
2024/03/12 04:05:10;;;;;;;;;;;;;;;7.14;100.00;95574.36;113062;1249;22379;-84
2024/03/12 04:07:36;;;;;;;;;;;;;;;7.17;100.00;95575.39;112852;1249;23090;-84
2024/03/12 04:10:02;;;;;;;;;;;;;;;7.18;100.00;95577.95;112951;1249;22371;-84
2024/03/12 04:12:28;;;;;;;;;;;;;;;7.19;100.00;95579.19;112945;1249;22533;-84
2024/03/12 04:14:54;;;;;;;;;;;;;;;7.21;100.00;95578.45;112969;1249;22354;-84
2024/03/12 04:17:22;;;;;;;;;;;;;;;7.23;100.00;95574.14;112847;1249;22348;-84
2024/03/12 04:19:47;;;;;;;;;;;;;;;7.24;100.00;95574.35;113064;1249;22796;-87
2024/03/12 04:22:16;;;;;;;;;;;;;;;7.26;100.00;95572.14;111938;1249;23976;-87
2024/03/12 04:24:43;;;;;;;;;;;;;;;7.26;100.00;95572.34;111728;1249;22556;-89
2024/03/12 04:27:15;;;;;;;;;;;;;;;7.28;100.00;95575.07;111746;1249;22672;-89
2024/03/12 04:29:43;;;;;;;;;;;;;;;7.26;100.00;95578.14;111712;1249;22610;-88
2024/03/12 04:32:09;;;;;;;;;;;;;;;7.22;100.00;95578.63;111740;1249;22573;-89
2024/03/12 04:34:36;;;;;;;;;;;;;;;7.20;100.00;95583.33;111742;1249;22515;-89
2024/03/12 04:37:01;;;;;;;;;;;;;;;7.17;100.00;95579.84;111499;1249;23256;-89
2024/03/12 04:39:30;;;;;;;;;;;;;;;7.15;100.00;95581.06;111514;1249;22525;-89
2024/03/12 04:42:00;;;;;;;;;;;;;;;7.14;100.00;95583.08;111567;1249;22483;-89
2024/03/12 04:44:26;;;;;;;;;;;;;;;7.12;100.00;95581.95;111479;1249;22518;-88
2024/03/12 04:46:52;;;;;;;;;;;;;;;7.11;100.00;95587.02;111552;1249;22542;-88
2024/03/12 04:49:17;;;;;;;;;;;;;;;7.12;100.00;95588.30;111708;1249;23839;-88
2024/03/12 04:51:44;;;;;;;;;;;;;;;7.11;100.00;95589.24;111461;1249;22528;-89
2024/03/12 04:54:10;;;;;;;;;;;;;;;7.11;100.00;95592.58;111534;1247;22529;-89
2024/03/12 04:56:36;;;;;;;;;;;;;;;7.10;100.00;95598.77;111571;1249;25360;-89
2024/03/12 04:59:02;;;;;;;;;;;;;;;7.07;100.00;95597.15;111523;1249;22521;-89
2024/03/12 05:01:28;;;;;;;;;;;;;;;7.07;100.00;95599.77;111522;1247;22481;-88
2024/03/12 05:03:55;;;;;;;;;;;;;;;7.09;100.00;95607.82;111709;1249;22598;-89
2024/03/12 05:06:21;;;;;;;;;;;;;;;7.08;100.00;95610.20;111711;1249;22582;-89
2024/03/12 05:08:46;;;;;;;;;;;;;;;7.07;100.00;95613.05;111725;1249;22524;-88
2024/03/12 05:11:13;;;;;;;;;;;;;;;7.06;100.00;95615.42;111587;1249;22542;-88
2024/03/12 05:13:41;;;;;;;;;;;;;;;7.07;100.00;95612.92;111717;1249;22561;-89
2024/03/12 05:16:07;;;;;;;;;;;;;;;7.07;100.00;95616.81;111739;1249;22570;-89
2024/03/12 05:18:33;;;;;;;;;;;;;;;7.04;100.00;95621.13;111587;1249;22616;-85
2024/03/12 05:20:58;;;;;;;;;;;;;;;7.03;100.00;95621.98;111512;1249;23261;-85
2024/03/12 05:23:24;;;;;;;;;;;;;;;6.96;100.00;95620.39;111711;1249;22507;-85
2024/03/12 05:25:51;;;;;;;;;;;;;;;6.87;100.00;95622.91;111475;1249;22503;-85
2024/03/12 05:28:19;;;;;;;;;;;;;;;6.85;100.00;95622.80;111511;1245;22519;-86
2024/03/12 05:30:45;;;;;;;;;;;;;;;6.85;100.00;95625.58;111462;1249;23983;-87
2024/03/12 05:33:15;;;;;;;;;;;;;;;6.88;100.00;95625.90;111662;1249;22562;-84
2024/03/12 05:35:47;;;;;;;;;;;;;;;6.91;100.00;95629.64;112827;1249;22458;-84
2024/03/12 05:38:30;;;;;;;;;;;;;;;6.95;100.00;95631.19;111429;1249;22582;-84
2024/03/12 05:49:09;;;;;;;;;;;;;;;7.00;100.00;95647.61;111526;1249;22557;-85
2024/03/12 05:51:36;;;;;;;;;;;;;;;7.03;100.00;95650.20;111677;1249;22497;-85
2024/03/12 05:54:01;;;;;;;;;;;;;;;7.10;100.00;95652.85;111692;1249;22639;-85
2024/03/12 05:56:29;;;;;;;;;;;;;;;7.12;100.00;95652.92;111712;1249;25272;-85
2024/03/12 05:58:55;;;;;;;;;;;;;;;7.10;100.00;95650.08;111495;1247;22541;-85
2024/03/12 06:01:23;;;;;;;;;;;;;;;7.11;100.00;95653.42;111695;1249;24207;-85
2024/03/12 06:03:50;;;;;;;;;;;;;;;7.13;100.00;95652.74;111455;1249;22586;-85
2024/03/12 06:06:17;;;;;;;;;;;;;;;7.20;100.00;95654.57;111481;1249;25366;-86
2024/03/12 06:08:44;;;;;;;;;;;;;;;7.24;100.00;95656.74;111697;1249;22473;-85
2024/03/12 06:11:12;;;;;;;;;;;;;;;7.26;100.00;95662.46;111676;1249;22518;-85
2024/03/12 06:13:41;;;;;;;;;;;;;;;7.31;100.00;95662.73;112556;1249;22963;-86
2024/03/12 06:16:07;;;;;;;;;;;;;;;7.34;100.00;95664.38;111671;1249;23830;-85
2024/03/12 06:18:33;;;;;;;;;;;;;;;7.36;100.00;95662.89;111701;1249;25347;-85
2024/03/12 06:20:59;;;;;;;;;;;;;;;7.38;100.00;95661.79;111719;1249;23223;-86
2024/03/12 06:23:25;;;;;;;;;;;;;;;7.39;100.00;95662.75;111685;1249;23980;-86
2024/03/12 06:25:52;;;;;;;;;;;;;;;7.42;100.00;95664.74;111680;1249;22520;-85
2024/03/12 06:28:21;;;;;;;;;;;;;;;7.46;100.00;95664.59;111492;1249;22510;-85
2024/03/12 06:30:48;;;;;;;;;;;;;;;7.55;100.00;95665.35;111527;1249;22499;-86
2024/03/12 06:33:17;;;;;;;;;;;;;;;7.60;100.00;95671.48;112939;1249;22472;-86
2024/03/12 06:35:43;;;;;;;;;;;;;;;7.63;100.00;95669.91;113070;1249;22344;-86
2024/03/12 06:38:08;;;;;;;;;;;;;;;7.59;100.00;95671.91;112911;1245;22339;-85
2024/03/12 06:40:34;;;;;;;;;;;;;;;7.59;100.00;95676.05;113096;1246;22415;-86
2024/03/12 06:43:00;;;;;;;;;;;;;;;7.61;100.00;95673.17;112866;1249;22413;-84
2024/03/12 06:45:26;;;;;;;;;;;;;;;7.67;100.00;95676.96;112865;1249;22373;-84
2024/03/12 06:47:55;;;;;;;;;;;;;;;7.68;100.00;95673.20;112880;1247;22336;-84
2024/03/12 06:50:25;;;;;;;;;;;;;;;7.68;100.00;95679.27;111461;1245;22516;-85
2024/03/12 06:52:55;;;;;;;;;;;;;;;7.71;100.00;95683.61;111502;1249;25164;-85
2024/03/12 06:55:24;;;;;;;;;;;;;;;7.78;100.00;95685.70;111498;1247;22528;-86
2024/03/12 06:57:59;;;;;;;;;;;;;;;7.77;100.00;95690.88;111478;1249;22539;-86
2024/03/12 07:00:37;;;;;;;;;;;;;;;7.74;100.00;95692.34;113082;1249;22241;-86
2024/03/12 07:03:09;;;;;;;;;;;;;;;7.73;100.00;95696.20;113075;1249;22838;-84
2024/03/12 07:05:43;;;;;;;;;;;;;;;7.69;100.00;95700.02;113084;1249;23209;-84
2024/03/12 07:08:09;;;;;;;;;;;;;;;7.65;100.00;95703.23;113078;1249;22215;-84
2024/03/12 07:10:37;;;;;;;;;;;;;;;7.59;100.00;95704.85;113076;1249;22407;-84
2024/03/12 07:13:04;;;;;;;;;;;;;;;7.51;100.00;95706.91;112890;1249;22327;-83
2024/03/12 07:15:31;;;;;;;;;;;;;;;7.47;100.00;95707.87;113060;1249;22396;-84
2024/03/12 07:17:57;;;;;;;;;;;;;;;7.45;100.00;95711.73;112226;1249;22905;-83
2024/03/12 07:20:23;;;;;;;;;;;;;;;7.43;100.00;95710.52;111712;1249;22472;-86
2024/03/12 07:22:49;;;;;;;;;;;;;;;7.44;100.00;95712.91;111464;1249;22508;-86
2024/03/12 07:25:16;;;;;;;;;;;;;;;7.43;100.00;95714.74;111697;1249;22532;-86
2024/03/12 07:27:42;;;;;;;;;;;;;;;7.40;100.00;95716.36;112918;1247;22370;-86
2024/03/12 07:30:10;;;;;;;;;;;;;;;7.37;100.00;95718.92;111862;1249;22543;-86
2024/03/12 07:32:35;;;;;;;;;;;;;;;7.31;100.00;95719.45;111488;1249;22501;-86
2024/03/12 07:35:01;;;;;;;;;;;;;;;7.30;100.00;95720.27;111474;1245;22576;-86
2024/03/12 07:37:27;;;;;;;;;;;;;;;7.26;100.00;95718.23;111471;1248;22522;-85
2024/03/12 07:39:53;;;;;;;;;;;;;;;7.25;100.00;95717.62;111486;1249;23659;-86
2024/03/12 07:42:19;;;;;;;;;;;;;;;7.22;100.00;95717.74;111708;1249;22588;-86
2024/03/12 07:44:47;;;;;;;;;;;;;;;7.21;100.00;95718.41;111692;1249;22498;-87
2024/03/12 07:47:16;;;;;;;;;;;;;;;7.17;100.00;95723.98;111707;1249;22476;-86
2024/03/12 07:49:42;;;;;;;;;;;;;;;7.18;100.00;95721.00;111464;1249;22576;-86
2024/03/12 07:52:11;;;;;;;;;;;;;;;7.20;100.00;95723.45;111492;1249;22507;-87
2024/03/12 07:54:37;;;;;;;;;;;;;;;7.23;100.00;95720.55;111502;1249;25313;-86
2024/03/12 07:57:04;;;;;;;;;;;;;;;7.22;100.00;95726.70;111478;1249;22999;-86
2024/03/12 07:59:31;;;;;;;;;;;;;;;7.25;100.00;95723.98;111513;1249;22553;-86
2024/03/12 08:01:57;;;;;;;;;;;;;;;7.28;100.00;95727.80;111509;1249;24141;-86
2024/03/12 08:04:25;;;;;;;;;;;;;;;7.28;100.00;95731.48;111481;1249;22763;-86
2024/03/12 08:06:51;;;;;;;;;;;;;;;7.28;100.00;95733.64;111719;1249;22522;-86
2024/03/12 08:09:18;;;;;;;;;;;;;;;7.22;100.00;95733.57;111475;1249;25213;-86
2024/03/12 08:11:46;;;;;;;;;;;;;;;7.15;100.00;95737.98;111518;1249;22511;-86
2024/03/12 08:14:13;;;;;;;;;;;;;;;7.11;100.00;95735.91;111484;1241;22616;-87
2024/03/12 08:16:42;;;;;;;;;;;;;;;7.08;100.00;95739.33;111466;1249;22523;-86
2024/03/12 08:19:11;;;;;;;;;;;;;;;7.07;100.00;95739.34;111472;1249;25358;-86
2024/03/12 08:21:38;;;;;;;;;;;;;;;7.07;100.00;95744.63;111495;1249;22520;-86
2024/03/12 08:24:05;;;;;;;;;;;;;;;7.06;100.00;95746.97;111494;1249;22539;-86
2024/03/12 08:26:31;;;;;;;;;;;;;;;7.05;100.00;95757.57;111474;1249;22500;-86
2024/03/12 08:28:57;;;;;;;;;;;;;;;7.04;100.00;95758.97;111464;1249;23296;-86
2024/03/12 08:31:23;;;;;;;;;;;;;;;7.04;100.00;95758.22;111493;1247;22812;-86
2024/03/12 08:33:49;;;;;;;;;;;;;;;7.02;100.00;95760.38;111464;1249;22498;-86
2024/03/12 08:36:15;;;;;;;;;;;;;;;7.00;100.00;95762.25;111479;1249;22504;-86
2024/03/12 08:38:41;;;;;;;;;;;;;;;7.04;100.00;95760.84;111723;1249;23727;-86
2024/03/12 08:41:09;;;;;;;;;;;;;;;7.06;100.00;95765.17;111485;1249;22583;-86
2024/03/12 08:43:36;;;;;;;;;;;;;;;7.11;100.00;95766.39;111495;1249;22521;-86
2024/03/12 08:46:03;;;;;;;;;;;;;;;7.13;100.00;95766.42;111527;1247;22513;-86
2024/03/12 08:48:29;;;;;;;;;;;;;;;7.17;100.00;95767.02;112910;1249;23117;-85
2024/03/12 08:50:56;;;;;;;;;;;;;;;7.15;100.00;95772.94;112909;1249;22444;-85
2024/03/12 08:53:21;;;;;;;;;;;;;;;7.10;100.00;95773.17;112930;1249;22979;-85
2024/03/12 08:55:47;;;;;;;;;;;;;;;7.13;100.00;95775.27;112918;1249;22366;-85
2024/03/12 08:58:13;;;;;;;;;;;;;;;7.17;100.00;95776.80;112901;1249;22343;-85
2024/03/12 09:00:41;;;;;;;;;;;;;;;7.18;100.00;95777.92;113092;1249;22346;-85
2024/03/12 09:03:07;;;;;;;;;;;;;;;7.18;100.00;95781.54;113098;1249;22323;-85
2024/03/12 09:05:34;;;;;;;;;;;;;;;7.21;100.00;95782.48;113091;1249;22315;-85
2024/03/12 09:08:03;;;;;;;;;;;;;;;7.23;100.00;95777.00;113114;1249;22749;-85
2024/03/12 09:10:30;;;;;;;;;;;;;;;7.22;100.00;95776.83;112901;1249;22348;-85
2024/03/12 09:12:56;;;;;;;;;;;;;;;7.25;100.00;95777.54;112496;1249;22503;-84
2024/03/12 09:15:22;;;;;;;;;;;;;;;7.24;100.00;95773.15;111520;1249;22488;-84
2024/03/12 09:17:48;;;;;;;;;;;;;;;7.26;100.00;95779.17;111714;1249;22436;-84
2024/03/12 09:20:15;;;;;;;;;;;;;;;7.30;100.00;95782.33;111710;1249;22520;-84
2024/03/12 09:22:44;;;;;;;;;;;;;;;7.30;100.00;95783.48;111390;1249;149466;-84
2024/03/12 09:25:10;;;;;;;;;;;;;;;7.34;100.00;95783.38;111442;1249;22458;-84
2024/03/12 09:27:37;;;;;;;;;;;;;;;7.37;100.00;95784.13;111520;1249;24013;-85
2024/03/12 09:30:03;;;;;;;;;;;;;;;7.39;100.00;95784.75;111470;1249;22475;-84
2024/03/12 09:32:29;;;;;;;;;;;;;;;7.40;100.00;95784.92;111715;1249;22518;-85
2024/03/12 09:34:55;;;;;;;;;;;;;;;7.40;100.00;95784.45;111705;1249;24193;-84
2024/03/12 09:37:21;;;;;;;;;;;;;;;7.41;100.00;95786.02;111433;1249;24954;-84
2024/03/12 09:39:51;;;;;;;;;;;;;;;7.41;100.00;95785.77;111695;1249;23177;-84
2024/03/12 09:42:17;;;;;;;;;;;;;;;7.43;100.00;95787.15;111713;1249;25393;-84
2024/03/12 09:44:43;;;;;;;;;;;;;;;7.43;100.00;95788.86;111473;1249;25996;-84
2024/03/12 09:47:09;;;;;;;;;;;;;;;7.45;100.00;95790.84;111466;1248;23259;-84
2024/03/12 09:49:35;;;;;;;;;;;;;;;7.48;100.00;95790.05;111468;1246;22603;-85
2024/03/12 09:52:01;;;;;;;;;;;;;;;7.51;100.00;95792.96;111417;1249;22504;-84
2024/03/12 09:54:27;;;;;;;;;;;;;;;7.54;100.00;95794.88;111413;1249;24149;-85
2024/03/12 09:56:54;;;;;;;;;;;;;;;7.58;100.00;95799.55;111503;1249;23812;-85
2024/03/12 09:59:20;;;;;;;;;;;;;;;7.60;100.00;95800.84;111467;1249;23233;-85
2024/03/12 10:01:47;;;;;;;;;;;;;;;7.60;100.00;95803.90;111466;1249;22550;-85
2024/03/12 10:04:17;;;;;;;;;;;;;;;7.62;100.00;95805.80;111487;1249;22544;-85
2024/03/12 10:06:43;;;;;;;;;;;;;;;7.63;100.00;95808.44;111726;1243;22526;-86
2024/03/12 10:09:15;;;;;;;;;;;;;;;7.62;100.00;95810.69;111754;1249;22507;-86
2024/03/12 10:11:44;;;;;;;;;;;;;;;7.61;100.00;95809.21;111488;1249;23568;-84
2024/03/12 10:14:12;;;;;;;;;;;;;;;7.62;100.00;95808.77;111489;1249;22511;-85
2024/03/12 10:16:38;;;;;;;;;;;;;;;7.62;100.00;95812.36;111492;1246;22479;-85
2024/03/12 10:19:05;;;;;;;;;;;;;;;7.64;100.00;95815.74;111488;1249;22509;-86
2024/03/12 10:21:31;;;;;;;;;;;;;;;7.64;100.00;95817.96;111708;1249;25890;-85
2024/03/12 10:24:13;;;;;;;;;;;;;;;7.65;100.00;95817.39;111720;1249;22475;-85
2024/03/12 10:26:39;;;;;;;;;;;;;;;7.64;100.00;95819.33;111506;1249;25363;-85
2024/03/12 10:29:09;;;;;;;;;;;;;;;7.64;100.00;95819.94;111461;1249;22475;-85
2024/03/12 10:31:39;;;;;;;;;;;;;;;7.64;100.00;95820.94;112907;1247;22356;-85
2024/03/12 10:34:13;;;;;;;;;;;;;;;7.65;100.00;95822.20;112936;1249;22980;-85
2024/03/12 10:36:42;;;;;;;;;;;;;;;7.66;100.00;95821.63;112898;1248;22211;-85
2024/03/12 10:39:12;;;;;;;;;;;;;;;7.67;100.00;95825.66;112944;1246;22356;-85
2024/03/12 10:41:38;;;;;;;;;;;;;;;7.68;100.00;95827.58;112896;1245;23069;-86
2024/03/12 10:44:05;;;;;;;;;;;;;;;7.69;100.00;95831.09;112925;1249;22483;-88
2024/03/12 10:46:30;;;;;;;;;;;;;;;7.70;100.00;95833.98;112936;1249;22344;-88
2024/03/12 10:48:56;;;;;;;;;;;;;;;7.72;100.00;95834.09;113098;1245;22365;-88
2024/03/12 10:51:22;;;;;;;;;;;;;;;7.73;100.00;95832.59;112710;1249;25217;-87
2024/03/12 10:53:53;;;;;;;;;;;;;;;7.73;100.00;95833.26;111545;1249;25359;-87
2024/03/12 10:56:19;;;;;;;;;;;;;;;7.73;100.00;95830.71;111541;1249;22995;-87
2024/03/12 10:58:48;;;;;;;;;;;;;;;7.71;100.00;95833.73;111743;1249;22596;-87
2024/03/12 11:01:17;;;;;;;;;;;;;;;7.71;100.00;95834.45;111509;1249;23905;-87
2024/03/12 11:03:43;;;;;;;;;;;;;;;7.68;100.00;95834.98;111555;1249;24169;-88
2024/03/12 11:06:08;;;;;;;;;;;;;;;7.68;100.00;95835.50;111596;1249;22522;-87
2024/03/12 11:08:36;;;;;;;;;;;;;;;7.68;100.00;95836.83;111545;1249;22613;-87
2024/03/12 11:11:04;;;;;;;;;;;;;;;7.69;100.00;95838.10;111505;1247;22566;-87
2024/03/12 11:13:30;;;;;;;;;;;;;;;7.69;100.00;95838.10;111544;1249;22508;-87
2024/03/12 11:15:57;;;;;;;;;;;;;;;7.68;100.00;95839.84;111473;1249;25357;-87
2024/03/12 11:18:34;;;;;;;;;;;;;;;7.67;100.00;95838.87;111514;1249;24155;-88
2024/03/12 11:20:59;;;;;;;;;;;;;;;7.68;100.00;95839.48;111524;1249;22631;-88
2024/03/12 11:23:28;;;;;;;;;;;;;;;7.67;100.00;95842.58;111532;1249;22486;-87
2024/03/12 11:25:56;;;;;;;;;;;;;;;7.65;100.00;95845.29;111724;1246;23620;-88
2024/03/12 11:28:26;;;;;;;;;;;;;;;7.63;100.00;95845.55;111525;1249;22510;-88
2024/03/12 11:30:55;;;;;;;;;;;;;;;7.62;100.00;95846.78;111496;1249;22700;-88
2024/03/12 11:33:45;;;;;;;;;;;;;;;7.62;100.00;95847.64;111550;1249;23232;-87
2024/03/12 11:36:11;;;;;;;;;;;;;;;7.59;100.00;95848.17;111863;1249;22616;-87
2024/03/12 11:38:37;;;;;;;;;;;;;;;7.59;100.00;95847.25;111745;1249;22698;-87
2024/03/12 11:41:03;;;;;;;;;;;;;;;7.59;100.00;95849.76;111711;1249;22796;-87
2024/03/12 11:43:39;;;;;;;;;;;;;;;7.59;100.00;95851.50;111489;1249;22558;-88
2024/03/12 11:46:15;;;;;;;;;;;;;;;7.56;100.00;95852.92;112945;1249;22378;-89
2024/03/12 11:48:41;;;;;;;;;;;;;;;7.53;100.00;95851.85;112951;1249;22386;-88
2024/03/12 11:51:11;;;;;;;;;;;;;;;7.53;100.00;95851.98;112909;1249;22370;-89
2024/03/12 11:53:38;;;;;;;;;;;;;;;7.57;100.00;95850.56;112878;1249;22252;-88
2024/03/12 11:56:10;;;;;;;;;;;;;;;7.61;100.00;95852.45;112943;1249;22510;-88
2024/03/12 11:58:49;;;;;;;;;;;;;;;7.65;100.00;95850.80;112929;1245;22389;-90
2024/03/12 12:01:18;;;;;;;;;;;;;;;7.67;100.00;95851.05;112962;1249;23119;-89
2024/03/12 12:03:44;;;;;;;;;;;;;;;7.67;100.00;95851.96;112504;1249;22526;-88
2024/03/12 12:06:10;;;;;;;;;;;;;;;7.67;100.00;95849.05;111556;1247;22479;-87
2024/03/12 12:08:37;;;;;;;;;;;;;;;7.70;100.00;95849.66;111494;1246;22509;-88
2024/03/12 12:11:07;;;;;;;;;;;;;;;7.72;100.00;95853.46;113083;1249;22342;-88
2024/03/12 12:13:32;;;;;;;;;;;;;;;7.70;100.00;95858.00;112792;1249;22584;-88
2024/03/12 12:16:02;;;;;;;;;;;;;;;7.68;100.00;95857.31;111480;1249;22521;-88
2024/03/12 12:18:37;;;;;;;;;;;;;;;7.68;100.00;95857.58;111496;1249;22468;-88
2024/03/12 12:21:07;;;;;;;;;;;;;;;7.68;100.00;95856.15;112949;1249;22448;-88
2024/03/12 12:23:35;;;;;;;;;;;;;;;7.71;100.00;95859.65;112963;1249;22391;-89
2024/03/12 12:26:00;;;;;;;;;;;;;;;7.71;100.00;95862.28;113039;1249;22360;-89
2024/03/12 12:28:26;;;;;;;;;;;;;;;7.68;100.00;95859.55;112875;1249;22512;-88
2024/03/12 12:30:56;;;;;;;;;;;;;;;7.66;100.00;95862.58;112939;1249;22437;-88
2024/03/12 12:33:23;;;;;;;;;;;;;;;7.66;100.00;95865.48;112619;1249;22545;-87
2024/03/12 12:35:49;;;;;;;;;;;;;;;7.67;100.00;95867.11;111573;1247;22494;-88
2024/03/12 12:38:16;;;;;;;;;;;;;;;7.69;100.00;95868.26;111639;1249;24169;-88
2024/03/12 12:40:44;;;;;;;;;;;;;;;7.68;100.00;95870.27;111486;1249;25198;-88
2024/03/12 12:43:15;;;;;;;;;;;;;;;7.66;100.00;95874.49;111523;1249;22502;-87